sensor_id;sensor_type;location;lat;lon;timestamp;P1;durP1;ratioP1;P2;durP2;ratioP2
70829;SDS011;58451;51.550;7.208;2022-10-20T09:13:42;14.60;;;7.20;;
70829;SDS011;58451;51.550;7.208;2022-10-20T15:47:53;8.50;;;4.20;;
70829;SDS011;58451;51.550;7.208;2022-10-20T15:49:25;10.30;;;5.60;;
70829;SDS011;58451;51.550;7.208;2022-10-20T15:51:04;8.80;;;4.20;;
70829;SDS011;58451;51.550;7.208;2022-10-20T15:53:29;10.50;;;5.30;;
70829;SDS011;58451;51.550;7.208;2022-10-20T15:57:36;9.10;;;4.70;;
70829;SDS011;58451;51.550;7.208;2022-10-20T15:59:10;12.00;;;6.00;;
70829;SDS011;58451;51.550;7.208;2022-10-20T16:02:38;12.10;;;5.20;;
70829;SDS011;58451;51.550;7.208;2022-10-20T16:04:21;11.40;;;4.80;;
70829;SDS011;58451;51.550;7.208;2022-10-20T16:05:57;10.20;;;5.20;;
70829;SDS011;58451;51.550;7.208;2022-10-20T16:07:29;12.50;;;5.50;;
70829;SDS011;58451;51.550;7.208;2022-10-20T16:09:02;9.50;;;4.80;;
70829;SDS011;58451;51.550;7.208;2022-10-20T16:10:36;10.60;;;4.80;;
70829;SDS011;58451;51.550;7.208;2022-10-20T16:12:09;11.80;;;4.60;;
70829;SDS011;58451;51.550;7.208;2022-10-20T16:13:41;10.40;;;4.80;;
70829;SDS011;58451;51.550;7.208;2022-10-20T16:15:13;10.30;;;4.80;;
70829;SDS011;58451;51.550;7.208;2022-10-20T16:16:46;11.00;;;4.70;;
70829;SDS011;58451;51.550;7.208;2022-10-20T16:18:18;11.70;;;4.90;;
70829;SDS011;58451;51.550;7.208;2022-10-20T16:19:50;11.40;;;4.80;;
70829;SDS011;58451;51.550;7.208;2022-10-20T16:21:22;8.80;;;4.60;;
70829;SDS011;58451;51.550;7.208;2022-10-20T16:22:54;9.60;;;4.70;;
70829;SDS011;58451;51.550;7.208;2022-10-20T16:24:26;10.40;;;4.70;;
70829;SDS011;58451;51.550;7.208;2022-10-20T16:25:58;9.70;;;5.40;;
70829;SDS011;58451;51.550;7.208;2022-10-20T16:27:31;13.20;;;4.70;;
70829;SDS011;58451;51.550;7.208;2022-10-20T16:29:08;10.40;;;5.30;;
70829;SDS011;58451;51.550;7.208;2022-10-20T16:30:40;15.90;;;5.00;;
70829;SDS011;58451;51.550;7.208;2022-10-20T16:32:12;9.60;;;4.80;;
70829;SDS011;58451;51.550;7.208;2022-10-20T16:33:44;11.90;;;4.90;;
70829;SDS011;58451;51.550;7.208;2022-10-20T16:35:16;9.90;;;4.80;;
70829;SDS011;58451;51.550;7.208;2022-10-20T16:36:49;11.10;;;5.00;;
70829;SDS011;58451;51.550;7.208;2022-10-20T16:38:21;12.20;;;5.50;;
70829;SDS011;58451;51.550;7.208;2022-10-20T16:39:53;9.00;;;4.90;;
70829;SDS011;58451;51.550;7.208;2022-10-20T16:41:25;11.30;;;5.30;;
70829;SDS011;58451;51.550;7.208;2022-10-20T16:42:58;11.20;;;6.00;;
70829;SDS011;58451;51.550;7.208;2022-10-20T16:44:31;14.20;;;7.10;;
70829;SDS011;58451;51.550;7.208;2022-10-20T16:46:05;13.40;;;7.00;;
70829;SDS011;58451;51.550;7.208;2022-10-20T16:47:38;13.50;;;6.20;;
70829;SDS011;58451;51.550;7.208;2022-10-20T16:49:11;12.20;;;6.30;;
70829;SDS011;58451;51.550;7.208;2022-10-20T16:50:45;13.30;;;6.20;;
70829;SDS011;58451;51.550;7.208;2022-10-20T16:52:18;11.50;;;5.20;;
70829;SDS011;58451;51.550;7.208;2022-10-20T16:53:50;12.00;;;5.30;;
70829;SDS011;58451;51.550;7.208;2022-10-20T16:55:22;12.90;;;6.10;;
70829;SDS011;58451;51.550;7.208;2022-10-20T16:56:54;12.10;;;5.60;;
70829;SDS011;58451;51.550;7.208;2022-10-20T16:58:27;11.90;;;5.60;;
70829;SDS011;58451;51.550;7.208;2022-10-20T16:59:59;15.30;;;5.60;;
70829;SDS011;58451;51.550;7.208;2022-10-20T17:01:31;14.00;;;6.00;;
70829;SDS011;58451;51.550;7.208;2022-10-20T17:03:03;11.90;;;5.80;;
70829;SDS011;58451;51.550;7.208;2022-10-20T17:04:35;13.00;;;6.50;;
70829;SDS011;58451;51.550;7.208;2022-10-20T17:06:08;14.00;;;6.20;;
70829;SDS011;58451;51.550;7.208;2022-10-20T17:07:41;15.80;;;5.60;;
70829;SDS011;58451;51.550;7.208;2022-10-20T17:09:12;10.20;;;5.20;;
70829;SDS011;58451;51.550;7.208;2022-10-20T17:10:45;14.80;;;5.90;;
70829;SDS011;58451;51.550;7.208;2022-10-20T17:12:18;13.70;;;6.80;;
70829;SDS011;58451;51.550;7.208;2022-10-20T17:13:50;11.60;;;5.40;;
70829;SDS011;58451;51.550;7.208;2022-10-20T17:15:22;15.20;;;6.20;;
70829;SDS011;58451;51.550;7.208;2022-10-20T17:16:55;12.20;;;5.90;;
70829;SDS011;58451;51.550;7.208;2022-10-20T17:18:30;13.40;;;6.30;;
70829;SDS011;58451;51.550;7.208;2022-10-20T17:20:03;13.20;;;5.60;;
70829;SDS011;58451;51.550;7.208;2022-10-20T17:21:35;13.20;;;6.00;;
70829;SDS011;58451;51.550;7.208;2022-10-20T17:23:07;14.40;;;5.70;;
70829;SDS011;58451;51.550;7.208;2022-10-20T17:24:39;15.30;;;7.10;;
70829;SDS011;58451;51.550;7.208;2022-10-20T17:26:17;14.80;;;6.80;;
70829;SDS011;58451;51.550;7.208;2022-10-20T17:27:51;13.00;;;6.20;;
70829;SDS011;58451;51.550;7.208;2022-10-20T17:29:23;15.40;;;6.60;;
70829;SDS011;58451;51.550;7.208;2022-10-20T17:32:28;13.20;;;5.00;;
70829;SDS011;58451;51.550;7.208;2022-10-20T17:34:01;15.10;;;7.60;;
70829;SDS011;58451;51.550;7.208;2022-10-20T17:35:34;15.90;;;7.20;;
70829;SDS011;58451;51.550;7.208;2022-10-20T17:37:06;16.30;;;8.80;;
70829;SDS011;58451;51.550;7.208;2022-10-20T17:38:39;16.70;;;8.80;;
70829;SDS011;58451;51.550;7.208;2022-10-20T17:40:13;15.30;;;5.80;;
70829;SDS011;58451;51.550;7.208;2022-10-20T17:41:45;15.20;;;7.20;;
70829;SDS011;58451;51.550;7.208;2022-10-20T17:43:17;12.90;;;6.50;;
70829;SDS011;58451;51.550;7.208;2022-10-20T17:44:49;13.00;;;5.40;;
70829;SDS011;58451;51.550;7.208;2022-10-20T17:46:22;14.20;;;6.00;;
70829;SDS011;58451;51.550;7.208;2022-10-20T17:47:54;13.60;;;6.70;;
70829;SDS011;58451;51.550;7.208;2022-10-20T17:49:26;13.70;;;6.70;;
70829;SDS011;58451;51.550;7.208;2022-10-20T17:51:02;14.90;;;6.80;;
70829;SDS011;58451;51.550;7.208;2022-10-20T17:52:36;14.80;;;7.10;;
70829;SDS011;58451;51.550;7.208;2022-10-20T17:54:08;13.80;;;6.80;;
70829;SDS011;58451;51.550;7.208;2022-10-20T17:55:40;14.50;;;6.50;;
70829;SDS011;58451;51.550;7.208;2022-10-20T17:57:12;12.90;;;6.10;;
70829;SDS011;58451;51.550;7.208;2022-10-20T17:58:46;15.80;;;7.00;;
70829;SDS011;58451;51.550;7.208;2022-10-20T18:00:19;15.50;;;7.70;;
70829;SDS011;58451;51.550;7.208;2022-10-20T18:02:11;15.40;;;6.90;;
70829;SDS011;58451;51.550;7.208;2022-10-20T18:03:46;13.30;;;6.10;;
70829;SDS011;58451;51.550;7.208;2022-10-20T18:05:20;13.70;;;6.60;;
70829;SDS011;58451;51.550;7.208;2022-10-20T18:06:52;13.30;;;6.40;;
70829;SDS011;58451;51.550;7.208;2022-10-20T18:08:26;13.50;;;6.30;;
70829;SDS011;58451;51.550;7.208;2022-10-20T18:09:58;12.70;;;6.80;;
70829;SDS011;58451;51.550;7.208;2022-10-20T18:11:33;14.10;;;6.80;;
70829;SDS011;58451;51.550;7.208;2022-10-20T18:13:08;14.80;;;6.70;;
70829;SDS011;58451;51.550;7.208;2022-10-20T18:14:40;12.50;;;6.00;;
70829;SDS011;58451;51.550;7.208;2022-10-20T18:16:15;14.20;;;6.80;;
70829;SDS011;58451;51.550;7.208;2022-10-20T18:17:48;14.30;;;6.60;;
70829;SDS011;58451;51.550;7.208;2022-10-20T18:19:20;11.50;;;6.00;;
70829;SDS011;58451;51.550;7.208;2022-10-20T18:20:54;14.40;;;6.70;;
70829;SDS011;58451;51.550;7.208;2022-10-20T18:22:26;13.50;;;6.10;;
70829;SDS011;58451;51.550;7.208;2022-10-20T18:24:01;12.70;;;6.00;;
70829;SDS011;58451;51.550;7.208;2022-10-20T18:25:34;14.00;;;6.00;;
70829;SDS011;58451;51.550;7.208;2022-10-20T18:27:06;13.70;;;6.40;;
70829;SDS011;58451;51.550;7.208;2022-10-20T18:28:38;12.20;;;6.40;;
70829;SDS011;58451;51.550;7.208;2022-10-20T18:30:16;13.60;;;6.70;;
70829;SDS011;58451;51.550;7.208;2022-10-20T18:31:48;12.80;;;6.00;;
70829;SDS011;58451;51.550;7.208;2022-10-20T18:33:21;13.00;;;6.20;;
70829;SDS011;58451;51.550;7.208;2022-10-20T18:34:53;13.20;;;5.60;;
70829;SDS011;58451;51.550;7.208;2022-10-20T18:36:26;12.50;;;5.60;;
70829;SDS011;58451;51.550;7.208;2022-10-20T18:37:58;11.60;;;5.60;;
70829;SDS011;58451;51.550;7.208;2022-10-20T18:39:30;13.30;;;5.70;;
70829;SDS011;58451;51.550;7.208;2022-10-20T18:42:44;13.00;;;6.40;;
70829;SDS011;58451;51.550;7.208;2022-10-20T18:44:17;13.00;;;6.50;;
70829;SDS011;58451;51.550;7.208;2022-10-20T18:45:50;14.00;;;6.50;;
70829;SDS011;58451;51.550;7.208;2022-10-20T18:47:23;12.70;;;6.20;;
70829;SDS011;58451;51.550;7.208;2022-10-20T18:48:56;13.30;;;6.10;;
70829;SDS011;58451;51.550;7.208;2022-10-20T18:50:28;13.90;;;6.40;;
70829;SDS011;58451;51.550;7.208;2022-10-20T18:52:00;11.20;;;6.20;;
70829;SDS011;58451;51.550;7.208;2022-10-20T18:53:34;12.10;;;5.80;;
70829;SDS011;58451;51.550;7.208;2022-10-20T18:55:08;10.70;;;5.10;;
70829;SDS011;58451;51.550;7.208;2022-10-20T18:56:40;11.80;;;5.70;;
70829;SDS011;58451;51.550;7.208;2022-10-20T18:58:13;12.90;;;5.10;;
70829;SDS011;58451;51.550;7.208;2022-10-20T18:59:48;12.30;;;5.60;;
70829;SDS011;58451;51.550;7.208;2022-10-20T19:01:23;9.60;;;4.60;;
70829;SDS011;58451;51.550;7.208;2022-10-20T19:02:57;9.00;;;4.20;;
70829;SDS011;58451;51.550;7.208;2022-10-20T19:04:32;10.20;;;4.40;;
70829;SDS011;58451;51.550;7.208;2022-10-20T19:06:09;12.10;;;5.70;;
70829;SDS011;58451;51.550;7.208;2022-10-20T19:07:44;14.20;;;6.10;;
70829;SDS011;58451;51.550;7.208;2022-10-20T19:09:18;12.10;;;5.00;;
70829;SDS011;58451;51.550;7.208;2022-10-20T19:10:51;11.30;;;5.30;;
70829;SDS011;58451;51.550;7.208;2022-10-20T19:12:23;12.90;;;5.80;;
70829;SDS011;58451;51.550;7.208;2022-10-20T19:13:56;12.80;;;5.90;;
70829;SDS011;58451;51.550;7.208;2022-10-20T19:15:29;12.80;;;6.20;;
70829;SDS011;58451;51.550;7.208;2022-10-20T19:17:00;16.00;;;6.70;;
70829;SDS011;58451;51.550;7.208;2022-10-20T19:18:32;11.60;;;5.20;;
70829;SDS011;58451;51.550;7.208;2022-10-20T19:20:06;9.30;;;4.40;;
70829;SDS011;58451;51.550;7.208;2022-10-20T19:21:38;11.00;;;5.50;;
70829;SDS011;58451;51.550;7.208;2022-10-20T19:23:10;16.40;;;6.40;;
70829;SDS011;58451;51.550;7.208;2022-10-20T19:24:42;12.60;;;5.40;;
70829;SDS011;58451;51.550;7.208;2022-10-20T19:26:19;10.60;;;4.80;;
70829;SDS011;58451;51.550;7.208;2022-10-20T19:27:54;12.60;;;5.50;;
70829;SDS011;58451;51.550;7.208;2022-10-20T19:29:26;12.50;;;6.10;;
70829;SDS011;58451;51.550;7.208;2022-10-20T19:30:58;14.70;;;6.70;;
70829;SDS011;58451;51.550;7.208;2022-10-20T19:32:33;12.50;;;5.60;;
70829;SDS011;58451;51.550;7.208;2022-10-20T19:34:17;13.70;;;6.30;;
70829;SDS011;58451;51.550;7.208;2022-10-20T19:35:54;12.40;;;5.20;;
70829;SDS011;58451;51.550;7.208;2022-10-20T19:39:54;11.40;;;5.50;;
70829;SDS011;58451;51.550;7.208;2022-10-20T19:41:26;11.60;;;4.90;;
70829;SDS011;58451;51.550;7.208;2022-10-20T19:44:21;11.10;;;5.30;;
70829;SDS011;58451;51.550;7.208;2022-10-20T19:45:57;12.70;;;5.80;;
70829;SDS011;58451;51.550;7.208;2022-10-20T19:47:30;14.70;;;5.40;;
70829;SDS011;58451;51.550;7.208;2022-10-20T19:49:02;14.30;;;6.40;;
70829;SDS011;58451;51.550;7.208;2022-10-20T19:50:34;14.10;;;5.20;;
70829;SDS011;58451;51.550;7.208;2022-10-20T19:52:07;13.20;;;5.30;;
70829;SDS011;58451;51.550;7.208;2022-10-20T19:53:39;13.30;;;6.20;;
70829;SDS011;58451;51.550;7.208;2022-10-20T19:55:11;11.20;;;5.00;;
70829;SDS011;58451;51.550;7.208;2022-10-20T19:56:43;10.40;;;4.40;;
70829;SDS011;58451;51.550;7.208;2022-10-20T19:58:16;12.50;;;5.60;;
70829;SDS011;58451;51.550;7.208;2022-10-20T19:59:48;12.50;;;5.40;;
70829;SDS011;58451;51.550;7.208;2022-10-20T20:01:20;11.50;;;5.60;;
70829;SDS011;58451;51.550;7.208;2022-10-20T20:02:52;10.30;;;4.80;;
70829;SDS011;58451;51.550;7.208;2022-10-20T20:04:24;12.00;;;5.20;;
70829;SDS011;58451;51.550;7.208;2022-10-20T20:07:59;14.20;;;5.20;;
70829;SDS011;58451;51.550;7.208;2022-10-20T20:09:30;11.20;;;5.10;;
70829;SDS011;58451;51.550;7.208;2022-10-20T20:11:03;12.50;;;5.30;;
70829;SDS011;58451;51.550;7.208;2022-10-20T20:12:35;14.00;;;6.00;;
70829;SDS011;58451;51.550;7.208;2022-10-20T20:14:12;13.90;;;6.00;;
70829;SDS011;58451;51.550;7.208;2022-10-20T20:15:45;12.50;;;5.50;;
70829;SDS011;58451;51.550;7.208;2022-10-20T20:17:18;14.50;;;5.80;;
70829;SDS011;58451;51.550;7.208;2022-10-20T20:18:52;11.60;;;5.20;;
70829;SDS011;58451;51.550;7.208;2022-10-20T20:20:24;11.00;;;4.70;;
70829;SDS011;58451;51.550;7.208;2022-10-20T20:21:57;12.20;;;5.30;;
70829;SDS011;58451;51.550;7.208;2022-10-20T20:23:29;11.60;;;5.10;;
70829;SDS011;58451;51.550;7.208;2022-10-20T20:25:22;9.80;;;4.70;;
70829;SDS011;58451;51.550;7.208;2022-10-20T20:26:54;10.00;;;4.90;;
70829;SDS011;58451;51.550;7.208;2022-10-20T20:28:26;11.50;;;5.10;;
70829;SDS011;58451;51.550;7.208;2022-10-20T20:29:57;11.50;;;5.10;;
70829;SDS011;58451;51.550;7.208;2022-10-20T20:31:30;11.30;;;5.50;;
70829;SDS011;58451;51.550;7.208;2022-10-20T20:33:02;13.00;;;5.50;;
70829;SDS011;58451;51.550;7.208;2022-10-20T20:34:35;14.50;;;5.50;;
70829;SDS011;58451;51.550;7.208;2022-10-20T20:36:07;11.40;;;5.00;;
70829;SDS011;58451;51.550;7.208;2022-10-20T20:37:39;10.40;;;4.70;;
70829;SDS011;58451;51.550;7.208;2022-10-20T20:39:11;12.00;;;4.80;;
70829;SDS011;58451;51.550;7.208;2022-10-20T20:40:43;8.20;;;3.20;;
70829;SDS011;58451;51.550;7.208;2022-10-20T20:42:18;8.30;;;3.50;;
70829;SDS011;58451;51.550;7.208;2022-10-20T20:43:52;12.30;;;5.00;;
70829;SDS011;58451;51.550;7.208;2022-10-20T20:45:24;10.60;;;4.40;;
70829;SDS011;58451;51.550;7.208;2022-10-20T20:46:55;10.60;;;4.30;;
70829;SDS011;58451;51.550;7.208;2022-10-20T21:00:10;11.20;;;4.40;;
70829;SDS011;58451;51.550;7.208;2022-10-20T21:01:44;8.50;;;3.50;;
70829;SDS011;58451;51.550;7.208;2022-10-20T21:03:17;10.30;;;4.40;;
70829;SDS011;58451;51.550;7.208;2022-10-20T21:04:50;9.10;;;3.60;;
70829;SDS011;58451;51.550;7.208;2022-10-20T21:06:26;9.10;;;3.80;;
70829;SDS011;58451;51.550;7.208;2022-10-20T21:08:18;8.50;;;3.40;;
70829;SDS011;58451;51.550;7.208;2022-10-20T21:09:50;8.10;;;3.60;;
70829;SDS011;58451;51.550;7.208;2022-10-20T21:11:24;11.60;;;4.60;;
70829;SDS011;58451;51.550;7.208;2022-10-20T21:12:58;7.90;;;3.70;;
70829;SDS011;58451;51.550;7.208;2022-10-20T21:14:29;8.90;;;3.40;;
70829;SDS011;58451;51.550;7.208;2022-10-20T21:17:39;7.90;;;2.90;;
70829;SDS011;58451;51.550;7.208;2022-10-20T21:19:11;7.20;;;2.70;;
70829;SDS011;58451;51.550;7.208;2022-10-20T21:20:43;9.80;;;3.80;;
70829;SDS011;58451;51.550;7.208;2022-10-20T21:22:14;8.80;;;4.10;;
70829;SDS011;58451;51.550;7.208;2022-10-20T21:23:47;11.30;;;4.40;;
70829;SDS011;58451;51.550;7.208;2022-10-20T21:25:19;10.80;;;4.40;;
70829;SDS011;58451;51.550;7.208;2022-10-20T21:26:51;8.60;;;3.80;;
70829;SDS011;58451;51.550;7.208;2022-10-20T21:28:23;10.30;;;4.20;;
70829;SDS011;58451;51.550;7.208;2022-10-20T21:29:55;9.20;;;3.50;;
70829;SDS011;58451;51.550;7.208;2022-10-20T21:31:28;8.30;;;3.50;;
70829;SDS011;58451;51.550;7.208;2022-10-20T21:33:00;9.70;;;4.20;;
70829;SDS011;58451;51.550;7.208;2022-10-20T21:34:32;10.70;;;4.20;;
70829;SDS011;58451;51.550;7.208;2022-10-20T21:36:07;10.00;;;4.10;;
70829;SDS011;58451;51.550;7.208;2022-10-20T21:37:44;10.90;;;3.90;;
70829;SDS011;58451;51.550;7.208;2022-10-20T21:39:17;8.40;;;3.80;;
70829;SDS011;58451;51.550;7.208;2022-10-20T21:40:49;9.40;;;3.80;;
70829;SDS011;58451;51.550;7.208;2022-10-20T21:42:23;11.50;;;3.90;;
70829;SDS011;58451;51.550;7.208;2022-10-20T21:43:57;9.10;;;4.00;;
70829;SDS011;58451;51.550;7.208;2022-10-20T21:45:30;11.00;;;3.90;;
70829;SDS011;58451;51.550;7.208;2022-10-20T21:47:01;7.00;;;2.80;;
70829;SDS011;58451;51.550;7.208;2022-10-20T21:48:33;8.30;;;3.70;;
70829;SDS011;58451;51.550;7.208;2022-10-20T21:50:06;12.30;;;4.20;;
70829;SDS011;58451;51.550;7.208;2022-10-20T21:51:44;10.80;;;3.80;;
70829;SDS011;58451;51.550;7.208;2022-10-20T21:53:22;12.70;;;4.60;;
70829;SDS011;58451;51.550;7.208;2022-10-20T21:54:54;12.10;;;4.30;;
70829;SDS011;58451;51.550;7.208;2022-10-20T21:56:26;8.70;;;3.10;;
70829;SDS011;58451;51.550;7.208;2022-10-20T21:57:59;10.20;;;3.50;;
70829;SDS011;58451;51.550;7.208;2022-10-20T21:59:31;11.50;;;5.00;;
70829;SDS011;58451;51.550;7.208;2022-10-20T22:01:11;12.50;;;3.90;;
70829;SDS011;58451;51.550;7.208;2022-10-20T22:02:47;9.50;;;3.80;;
70829;SDS011;58451;51.550;7.208;2022-10-20T22:04:20;12.10;;;4.40;;
70829;SDS011;58451;51.550;7.208;2022-10-20T22:05:54;12.10;;;4.80;;
70829;SDS011;58451;51.550;7.208;2022-10-20T22:07:28;11.30;;;4.10;;
70829;SDS011;58451;51.550;7.208;2022-10-20T22:09:00;10.60;;;4.40;;
70829;SDS011;58451;51.550;7.208;2022-10-20T22:10:35;8.90;;;4.10;;
70829;SDS011;58451;51.550;7.208;2022-10-20T22:12:07;12.50;;;4.30;;
70829;SDS011;58451;51.550;7.208;2022-10-20T22:13:39;15.10;;;4.50;;
70829;SDS011;58451;51.550;7.208;2022-10-20T22:15:12;8.60;;;3.80;;
70829;SDS011;58451;51.550;7.208;2022-10-20T22:16:44;11.70;;;4.00;;
70829;SDS011;58451;51.550;7.208;2022-10-20T22:18:16;10.00;;;3.80;;
70829;SDS011;58451;51.550;7.208;2022-10-20T22:19:48;10.90;;;4.30;;
70829;SDS011;58451;51.550;7.208;2022-10-20T22:21:20;9.90;;;3.50;;
70829;SDS011;58451;51.550;7.208;2022-10-20T22:22:52;10.80;;;4.70;;
70829;SDS011;58451;51.550;7.208;2022-10-20T22:24:24;9.40;;;4.40;;
70829;SDS011;58451;51.550;7.208;2022-10-20T22:25:59;11.00;;;4.50;;
70829;SDS011;58451;51.550;7.208;2022-10-20T22:27:31;11.70;;;4.40;;
70829;SDS011;58451;51.550;7.208;2022-10-20T22:29:13;10.90;;;4.10;;
70829;SDS011;58451;51.550;7.208;2022-10-20T22:30:45;11.20;;;4.40;;
70829;SDS011;58451;51.550;7.208;2022-10-20T22:32:16;13.60;;;4.70;;
70829;SDS011;58451;51.550;7.208;2022-10-20T22:33:53;10.90;;;4.60;;
70829;SDS011;58451;51.550;7.208;2022-10-20T22:35:27;11.10;;;3.50;;
70829;SDS011;58451;51.550;7.208;2022-10-20T22:36:59;8.90;;;4.40;;
70829;SDS011;58451;51.550;7.208;2022-10-20T22:38:31;12.60;;;3.90;;
70829;SDS011;58451;51.550;7.208;2022-10-20T22:40:03;10.60;;;4.60;;
70829;SDS011;58451;51.550;7.208;2022-10-20T22:41:36;14.10;;;4.50;;
70829;SDS011;58451;51.550;7.208;2022-10-20T22:43:08;11.80;;;4.50;;
70829;SDS011;58451;51.550;7.208;2022-10-20T22:44:40;12.30;;;4.10;;
70829;SDS011;58451;51.550;7.208;2022-10-20T22:46:12;12.90;;;4.50;;
70829;SDS011;58451;51.550;7.208;2022-10-20T22:47:46;9.70;;;3.60;;
70829;SDS011;58451;51.550;7.208;2022-10-20T22:49:18;11.00;;;4.50;;
70829;SDS011;58451;51.550;7.208;2022-10-20T22:50:49;12.40;;;4.70;;
70829;SDS011;58451;51.550;7.208;2022-10-20T22:52:21;11.70;;;4.60;;
70829;SDS011;58451;51.550;7.208;2022-10-20T22:53:53;10.50;;;4.10;;
70829;SDS011;58451;51.550;7.208;2022-10-20T22:55:25;12.90;;;4.80;;
70829;SDS011;58451;51.550;7.208;2022-10-20T22:56:57;11.20;;;4.30;;
70829;SDS011;58451;51.550;7.208;2022-10-20T22:58:29;11.20;;;4.60;;
70829;SDS011;58451;51.550;7.208;2022-10-20T23:00:02;11.90;;;3.90;;
70829;SDS011;58451;51.550;7.208;2022-10-20T23:01:35;14.30;;;5.00;;
70829;SDS011;58451;51.550;7.208;2022-10-20T23:03:07;14.50;;;4.80;;
70829;SDS011;58451;51.550;7.208;2022-10-20T23:04:40;10.40;;;4.30;;
70829;SDS011;58451;51.550;7.208;2022-10-20T23:06:15;8.70;;;4.20;;
70829;SDS011;58451;51.550;7.208;2022-10-20T23:07:52;10.80;;;4.30;;
70829;SDS011;58451;51.550;7.208;2022-10-20T23:09:24;11.30;;;4.00;;
70829;SDS011;58451;51.550;7.208;2022-10-20T23:10:57;13.70;;;5.00;;
70829;SDS011;58451;51.550;7.208;2022-10-20T23:12:30;9.90;;;4.20;;
70829;SDS011;58451;51.550;7.208;2022-10-20T23:14:02;12.50;;;4.40;;
70829;SDS011;58451;51.550;7.208;2022-10-20T23:15:34;10.60;;;4.70;;
70829;SDS011;58451;51.550;7.208;2022-10-20T23:17:06;10.70;;;4.40;;
70829;SDS011;58451;51.550;7.208;2022-10-20T23:18:39;11.20;;;4.60;;
70829;SDS011;58451;51.550;7.208;2022-10-20T23:20:11;11.20;;;4.20;;
70829;SDS011;58451;51.550;7.208;2022-10-20T23:21:43;11.50;;;4.80;;
70829;SDS011;58451;51.550;7.208;2022-10-20T23:23:15;12.30;;;4.90;;
70829;SDS011;58451;51.550;7.208;2022-10-20T23:24:47;11.60;;;4.70;;
70829;SDS011;58451;51.550;7.208;2022-10-20T23:26:19;10.90;;;4.70;;
70829;SDS011;58451;51.550;7.208;2022-10-20T23:27:51;11.50;;;4.50;;
70829;SDS011;58451;51.550;7.208;2022-10-20T23:29:23;10.30;;;4.40;;
70829;SDS011;58451;51.550;7.208;2022-10-20T23:31:09;11.70;;;5.00;;
70829;SDS011;58451;51.550;7.208;2022-10-20T23:32:45;12.40;;;4.10;;
70829;SDS011;58451;51.550;7.208;2022-10-20T23:34:17;12.50;;;4.50;;
70829;SDS011;58451;51.550;7.208;2022-10-20T23:35:49;9.50;;;4.70;;
70829;SDS011;58451;51.550;7.208;2022-10-20T23:37:21;11.00;;;4.90;;
70829;SDS011;58451;51.550;7.208;2022-10-20T23:38:54;11.50;;;4.50;;
70829;SDS011;58451;51.550;7.208;2022-10-20T23:40:26;13.80;;;4.70;;
70829;SDS011;58451;51.550;7.208;2022-10-20T23:41:57;10.50;;;4.90;;
70829;SDS011;58451;51.550;7.208;2022-10-20T23:43:36;13.40;;;4.70;;
70829;SDS011;58451;51.550;7.208;2022-10-20T23:45:09;10.80;;;4.60;;
70829;SDS011;58451;51.550;7.208;2022-10-20T23:46:41;11.70;;;4.50;;
70829;SDS011;58451;51.550;7.208;2022-10-20T23:48:12;12.50;;;5.60;;
70829;SDS011;58451;51.550;7.208;2022-10-20T23:49:44;13.40;;;5.60;;
70829;SDS011;58451;51.550;7.208;2022-10-20T23:51:16;12.20;;;5.80;;
70829;SDS011;58451;51.550;7.208;2022-10-20T23:52:48;15.90;;;6.30;;
70829;SDS011;58451;51.550;7.208;2022-10-20T23:54:20;14.70;;;5.30;;
70829;SDS011;58451;51.550;7.208;2022-10-20T23:55:52;13.90;;;5.70;;
70829;SDS011;58451;51.550;7.208;2022-10-20T23:57:27;11.90;;;5.10;;
70829;SDS011;58451;51.550;7.208;2022-10-20T23:58:58;13.50;;;6.00;;
